Amsterdam, Netherlands

5:08 PM CEST on August 30, 2016 (GMT +0200)
Aalsmeerderdijk | | Change Station

Elev -6 ft 52.28 °N, 4.76 °E | Updated 5 minutes ago

Partly Cloudy
Partly Cloudy
81.3 °F
Feels Like 83 °F
N
0.6
Wind Variable Wind from West
Gusts 3.7 mph

Today
High -- | Low -- °F
--% Chance of Precip.
Yesterday
High -- | Low -- °F
Precip. -- in
Pressure 30.24 in
Visibility 6.2 miles
Clouds Few 3300 ft
Heat Index 83 °F
Dew Point 64 °F
Humidity 55%
Rainfall 0.00 in
Snow Depth Not available.
6:49 AM 8:32 PM
Waning Crescent, 3% visible
METAR EHAM 301455Z 26004KT 190V330 9999 FEW033 23/15 Q1024 NOSIG
Pressure 30.24 in
Visibility 6.2 miles
Clouds Few 3300 ft
Heat Index 83 °F
Dew Point 64 °F
Humidity 55%
Rainfall 0.00 in
Snow Depth Not available.
6:49 AM 8:32 PM
Waning Crescent, 3% visible
METAR EHAM 301455Z 26004KT 190V330 9999 FEW033 23/15 Q1024 NOSIG

10-Day Weather Forecast

×

Almanac

Astronomy

Aug. 30, 2016 Rise Set
Actual Time
Civil Twilight
Nautical Twilight
Astronomical Twilight
Moon
Length of Visible Light
Length of Day
Tomorrow will be .
, % of the Moon is Illuminated

Today's Extremes

Country Highs Country Lows

Community

WunderPhotos

Upload Photos

1,935,853 photos uploaded!

WunderBlog® & News

Nearby

Air Quality

  Air Quality AQ Index Pollutant
Not available.

Snow Depth

Station Depth Elevation

Earthquake Activity

City Distance Mag. Time & Date
Minimum magnitude displayed is 2.5.

Coastal Water Temperatures

Place Temperature

Stations

Nearby Weather Stations

Station Location Temp. Windchill Dew Point Humidity Wind Precip. Elev Updated Type